Time;durP1;ratioP1;P1;durP2;ratioP2;P2;SDS_P1;SDS_P2;PMS_P1;PMS_P2;Temp;Humidity;BMP_temperature;BMP_pressure;BME280_temperature;BME280_humidity;BME280_pressure;Samples;Min_cycle;Max_cycle;Signal;HPM_P1;HPM_P2
2021/12/25 00:00:45;;;;;;;;;21.75;17.75;;;;;;;;4966266;28;45437;-79
2021/12/25 00:03:11;;;;;;;;;19.75;19.25;;;;;;;;4965527;28;45482;-80
2021/12/25 00:05:37;;;;;;;;;21.50;18.75;;;;;;;;4971342;28;45644;-80
2021/12/25 00:08:02;;;;;;;;;20.50;16.50;;;;;;;;4969157;28;45758;-80
2021/12/25 00:10:30;;;;;;;;;19.75;18.00;;;;;;;;4971169;28;45621;-80
2021/12/25 00:12:55;;;;;;;;;19.75;15.25;;;;;;;;4988395;28;46023;-80
2021/12/25 00:15:21;;;;;;;;;19.25;17.75;;;;;;;;4968503;28;46383;-80
2021/12/25 00:17:46;;;;;;;;;21.50;17.75;;;;;;;;4970761;28;45489;-81
2021/12/25 00:20:11;;;;;;;;;18.33;18.00;;;;;;;;4970537;28;45474;-80
2021/12/25 00:22:36;;;;;;;;;18.67;14.33;;;;;;;;4960070;28;45677;-80
2021/12/25 00:25:02;;;;;;;;;18.33;14.00;;;;;;;;4976982;28;46161;-80
2021/12/25 00:34:46;;;;;;;;;12.75;9.50;;;;;;;;4968102;28;46098;-79
2021/12/25 00:37:12;;;;;;;;;17.25;13.25;;;;;;;;4975623;28;45622;-78
2021/12/25 00:39:37;;;;;;;;;14.67;11.00;;;;;;;;4960127;28;45714;-78
2021/12/25 00:42:03;;;;;;;;;14.75;10.00;;;;;;;;4966530;28;45665;-78
2021/12/25 00:44:28;;;;;;;;;13.50;13.50;;;;;;;;4964166;28;46187;-81
2021/12/25 00:46:54;;;;;;;;;10.25;10.25;;;;;;;;4966653;28;45580;-78
2021/12/25 00:49:19;;;;;;;;;15.25;13.00;;;;;;;;4964321;28;45442;-79
2021/12/25 00:51:44;;;;;;;;;12.00;12.00;;;;;;;;4965274;28;45423;-78
2021/12/25 00:54:10;;;;;;;;;14.00;9.75;;;;;;;;4966893;28;46228;-80
2021/12/25 00:56:35;;;;;;;;;12.00;10.75;;;;;;;;4968266;28;45566;-81
2021/12/25 00:59:00;;;;;;;;;13.00;10.25;;;;;;;;4971598;28;45733;-80
2021/12/25 01:01:26;;;;;;;;;11.00;9.67;;;;;;;;4967079;28;45544;-79
2021/12/25 01:03:51;;;;;;;;;14.33;12.00;;;;;;;;4967339;28;45997;-78
2021/12/25 01:06:16;;;;;;;;;13.67;10.00;;;;;;;;4968638;28;45482;-78
2021/12/25 01:08:41;;;;;;;;;15.25;13.25;;;;;;;;4969691;28;45542;-78
2021/12/25 01:11:07;;;;;;;;;10.75;10.75;;;;;;;;4968824;28;45515;-80
2021/12/25 01:13:37;;;;;;;;;11.67;11.00;;;;;;;;4970942;28;45498;-80
2021/12/25 01:24:14;;;;;;;;;14.00;10.25;;;;;;;;4968431;28;46013;-77
2021/12/25 01:49:59;;;;;;;;;11.00;8.50;;;;;;;;4984543;28;45536;-78
2021/12/25 01:52:28;;;;;;;;;11.50;9.00;;;;;;;;4970118;28;45672;-78
2021/12/25 01:54:54;;;;;;;;;17.50;12.25;;;;;;;;4965530;28;46345;-78
2021/12/25 01:57:19;;;;;;;;;14.50;12.25;;;;;;;;4966444;28;45649;-79
2021/12/25 01:59:45;;;;;;;;;14.75;12.00;;;;;;;;4968214;28;45866;-79
2021/12/25 02:02:10;;;;;;;;;13.67;11.33;;;;;;;;4965213;28;45363;-79
2021/12/25 02:04:35;;;;;;;;;11.67;11.00;;;;;;;;4958368;28;45402;-78
2021/12/25 02:07:00;;;;;;;;;12.67;10.33;;;;;;;;4959220;28;45351;-79
2021/12/25 02:09:27;;;;;;;;;14.50;14.50;;;;;;;;4964733;28;45284;-80
2021/12/25 02:11:53;;;;;;;;;14.25;10.50;;;;;;;;4964996;28;45647;-79
2021/12/25 02:14:18;;;;;;;;;15.25;12.75;;;;;;;;4965285;28;48283;-79
2021/12/25 02:16:55;;;;;;;;;15.33;13.00;;;;;;;;4965930;28;45527;-79
2021/12/25 02:19:33;;;;;;;;;17.50;15.50;;;;;;;;4965892;28;45604;-80
2021/12/25 02:22:01;;;;;;;;;15.25;11.25;;;;;;;;4968852;28;45496;-80
2021/12/25 02:24:26;;;;;;;;;13.25;13.25;;;;;;;;4964628;28;45998;-79
2021/12/25 02:26:51;;;;;;;;;15.25;13.50;;;;;;;;4959675;28;45504;-79
2021/12/25 02:29:17;;;;;;;;;14.00;13.00;;;;;;;;4970574;28;45642;-80
2021/12/25 02:31:42;;;;;;;;;18.33;13.33;;;;;;;;4980546;28;45517;-79
2021/12/25 02:34:07;;;;;;;;;17.00;14.00;;;;;;;;4961320;28;45535;-79
2021/12/25 02:36:32;;;;;;;;;21.33;15.33;;;;;;;;4963116;28;45585;-80
2021/12/25 02:38:58;;;;;;;;;17.00;15.25;;;;;;;;4961684;28;47945;-79
2021/12/25 02:41:23;;;;;;;;;19.67;13.33;;;;;;;;4965703;28;45442;-80
2021/12/25 02:43:48;;;;;;;;;18.00;12.50;;;;;;;;4967582;28;45995;-80
2021/12/25 02:46:14;;;;;;;;;19.33;13.33;;;;;;;;4960586;28;45439;-79
2021/12/25 02:48:42;;;;;;;;;20.00;15.50;;;;;;;;4961442;28;45517;-79
2021/12/25 02:51:07;;;;;;;;;15.00;13.50;;;;;;;;4968553;28;45737;-80
2021/12/25 02:53:33;;;;;;;;;12.50;12.25;;;;;;;;4968249;28;46655;-79
2021/12/25 02:55:58;;;;;;;;;20.75;14.25;;;;;;;;4969816;28;45522;-80
2021/12/25 02:58:24;;;;;;;;;18.33;14.67;;;;;;;;4964139;28;45616;-78
2021/12/25 03:00:58;;;;;;;;;16.50;13.25;;;;;;;;4965749;28;45530;-79
2021/12/25 03:03:23;;;;;;;;;14.25;14.25;;;;;;;;4965881;28;45529;-78
2021/12/25 03:05:48;;;;;;;;;16.00;14.33;;;;;;;;4957023;28;45511;-80
2021/12/25 03:08:15;;;;;;;;;15.50;14.25;;;;;;;;4967303;28;45450;-80
2021/12/25 03:10:40;;;;;;;;;23.25;14.50;;;;;;;;4968894;28;45506;-79
2021/12/25 03:15:49;;;;;;;;;15.75;15.75;;;;;;;;4963507;28;45427;-79
2021/12/25 03:18:23;;;;;;;;;17.75;15.50;;;;;;;;4964911;28;45595;-79
2021/12/25 03:20:49;;;;;;;;;15.50;13.75;;;;;;;;4965514;28;45996;-80
2021/12/25 03:23:19;;;;;;;;;19.50;14.50;;;;;;;;4967137;28;45412;-80
2021/12/25 03:25:45;;;;;;;;;16.25;15.00;;;;;;;;4965596;28;46221;-79
2021/12/25 03:28:10;;;;;;;;;17.75;12.25;;;;;;;;4965151;28;47539;-79
2021/12/25 03:30:39;;;;;;;;;22.50;15.75;;;;;;;;4965710;28;45533;-80
2021/12/25 03:33:05;;;;;;;;;25.50;17.00;;;;;;;;4965102;28;46351;-79
2021/12/25 03:35:31;;;;;;;;;16.75;12.00;;;;;;;;4966165;28;45535;-79
2021/12/25 03:37:56;;;;;;;;;18.75;14.50;;;;;;;;4969287;28;45374;-80
2021/12/25 03:40:21;;;;;;;;;20.67;14.33;;;;;;;;4954778;28;45537;-80
2021/12/25 03:42:46;;;;;;;;;18.00;16.33;;;;;;;;4958710;28;46291;-80
2021/12/25 03:45:12;;;;;;;;;18.00;15.25;;;;;;;;4964449;28;45473;-80
2021/12/25 03:47:39;;;;;;;;;14.75;13.00;;;;;;;;4956326;28;45470;-80
2021/12/25 03:58:08;;;;;;;;;20.00;18.00;;;;;;;;4966894;28;46087;-80
2021/12/25 04:00:35;;;;;;;;;19.75;16.75;;;;;;;;4968303;28;45655;-80
2021/12/25 04:03:05;;;;;;;;;20.50;18.50;;;;;;;;4976733;28;47429;-80
2021/12/25 04:05:33;;;;;;;;;23.25;18.00;;;;;;;;4962757;28;46136;-79
2021/12/25 04:08:10;;;;;;;;;18.75;16.00;;;;;;;;4969243;28;45585;-79
2021/12/25 04:10:38;;;;;;;;;18.75;15.50;;;;;;;;4963471;28;45436;-79
2021/12/25 04:13:06;;;;;;;;;22.75;17.00;;;;;;;;4961692;28;47157;-80
2021/12/25 04:15:31;;;;;;;;;19.00;16.00;;;;;;;;4961903;28;46119;-80
2021/12/25 04:17:56;;;;;;;;;20.00;16.50;;;;;;;;4962429;28;45327;-80
2021/12/25 04:20:22;;;;;;;;;24.67;17.00;;;;;;;;4950614;28;45393;-79
2021/12/25 04:23:01;;;;;;;;;21.25;17.75;;;;;;;;4962270;28;46521;-79
2021/12/25 04:25:29;;;;;;;;;18.50;16.75;;;;;;;;4960154;28;45490;-79
2021/12/25 04:27:59;;;;;;;;;25.25;21.50;;;;;;;;4962646;28;45438;-78
2021/12/25 04:42:49;;;;;;;;;26.50;19.00;;;;;;;;4966479;28;45555;-80
2021/12/25 04:50:05;;;;;;;;;19.50;15.00;;;;;;;;4930263;28;45501;-80
2021/12/25 05:05:52;;;;;;;;;17.00;13.75;;;;;;;;4930789;28;46221;-79
2021/12/25 05:08:18;;;;;;;;;17.25;14.50;;;;;;;;4930535;28;45428;-79
2021/12/25 05:10:43;;;;;;;;;16.25;15.25;;;;;;;;4932322;28;45528;-79
2021/12/25 05:13:09;;;;;;;;;18.25;16.50;;;;;;;;4929846;28;45618;-80
2021/12/25 05:15:34;;;;;;;;;19.33;15.33;;;;;;;;4936722;28;45892;-79
2021/12/25 05:17:59;;;;;;;;;15.00;13.33;;;;;;;;4927895;28;45457;-79
2021/12/25 05:20:25;;;;;;;;;16.00;15.33;;;;;;;;4927827;28;45565;-79
2021/12/25 05:22:50;;;;;;;;;16.00;15.00;;;;;;;;4928909;28;45472;-79
2021/12/25 05:25:15;;;;;;;;;17.00;13.33;;;;;;;;4968957;28;46438;-80
2021/12/25 05:27:41;;;;;;;;;17.00;15.25;;;;;;;;4964266;28;45362;-79
2021/12/25 05:30:06;;;;;;;;;19.25;15.00;;;;;;;;4965816;28;45637;-79
2021/12/25 05:32:32;;;;;;;;;16.75;15.50;;;;;;;;4968071;28;45814;-79
2021/12/25 05:34:57;;;;;;;;;18.67;15.33;;;;;;;;4990111;28;46584;-79
2021/12/25 05:37:22;;;;;;;;;22.67;16.00;;;;;;;;4960714;28;45475;-79
2021/12/25 05:39:51;;;;;;;;;16.00;14.33;;;;;;;;4957545;28;46573;-79
2021/12/25 05:42:17;;;;;;;;;17.25;13.50;;;;;;;;4967790;28;45519;-79
2021/12/25 05:44:43;;;;;;;;;13.25;12.25;;;;;;;;4981685;28;47611;-79
2021/12/25 05:47:08;;;;;;;;;15.75;14.00;;;;;;;;4967592;28;45856;-79
2021/12/25 05:49:34;;;;;;;;;16.00;13.00;;;;;;;;4967648;28;45525;-79
2021/12/25 05:51:59;;;;;;;;;17.33;13.00;;;;;;;;4968507;28;45474;-79
2021/12/25 05:54:24;;;;;;;;;14.00;13.00;;;;;;;;4965066;28;45501;-79
2021/12/25 05:56:49;;;;;;;;;20.67;12.67;;;;;;;;4980012;28;46179;-79
2021/12/25 05:59:14;;;;;;;;;16.33;15.00;;;;;;;;4962194;28;45489;-79
2021/12/25 06:01:40;;;;;;;;;19.00;14.33;;;;;;;;4969677;28;45411;-79
2021/12/25 06:04:05;;;;;;;;;19.00;14.00;;;;;;;;4964397;28;46024;-78
2021/12/25 06:06:30;;;;;;;;;19.33;16.00;;;;;;;;4964949;28;45567;-79
2021/12/25 06:08:55;;;;;;;;;15.67;12.67;;;;;;;;4967337;28;45599;-79
2021/12/25 06:11:22;;;;;;;;;15.00;14.00;;;;;;;;4972666;28;45801;-78
2021/12/25 06:13:57;;;;;;;;;21.00;16.50;;;;;;;;4989389;28;46965;-79
2021/12/25 06:16:23;;;;;;;;;18.25;16.75;;;;;;;;4964794;28;46243;-79
2021/12/25 06:18:48;;;;;;;;;14.25;12.00;;;;;;;;4967349;28;45627;-78
2021/12/25 06:21:13;;;;;;;;;16.00;13.67;;;;;;;;4968089;28;45583;-80
2021/12/25 06:23:38;;;;;;;;;19.00;15.33;;;;;;;;4963342;28;45499;-80
2021/12/25 06:26:03;;;;;;;;;21.67;15.33;;;;;;;;4971653;28;45705;-78
2021/12/25 06:28:29;;;;;;;;;13.67;13.33;;;;;;;;4962382;28;45545;-77
2021/12/25 06:30:54;;;;;;;;;20.25;14.50;;;;;;;;4966169;28;45540;-78
2021/12/25 06:33:19;;;;;;;;;16.75;14.00;;;;;;;;4965132;28;45994;-77
2021/12/25 06:35:45;;;;;;;;;15.00;15.00;;;;;;;;4968583;28;45406;-78
2021/12/25 06:38:10;;;;;;;;;19.00;13.33;;;;;;;;4967582;28;45548;-77
2021/12/25 06:40:35;;;;;;;;;20.75;16.25;;;;;;;;4957820;28;45696;-80
2021/12/25 06:43:01;;;;;;;;;15.67;13.33;;;;;;;;4968669;28;48361;-79
2021/12/25 06:45:27;;;;;;;;;23.00;16.25;;;;;;;;4964541;28;45921;-80
2021/12/25 06:47:52;;;;;;;;;22.25;18.50;;;;;;;;4971341;28;45569;-80
2021/12/25 06:50:17;;;;;;;;;17.00;16.00;;;;;;;;4966778;28;45439;-80
2021/12/25 06:52:45;;;;;;;;;17.50;15.50;;;;;;;;4960577;28;46393;-80
2021/12/25 06:55:11;;;;;;;;;17.25;16.25;;;;;;;;4962857;28;45869;-79
2021/12/25 06:57:43;;;;;;;;;16.75;15.00;;;;;;;;4957089;28;45589;-80
2021/12/25 07:00:09;;;;;;;;;20.25;15.50;;;;;;;;4964291;28;45534;-80
2021/12/25 07:02:34;;;;;;;;;18.00;15.00;;;;;;;;4974197;28;45915;-79
2021/12/25 07:05:00;;;;;;;;;15.00;15.00;;;;;;;;4965438;28;45482;-80
2021/12/25 07:07:25;;;;;;;;;17.75;14.75;;;;;;;;4967474;28;45539;-79
2021/12/25 07:09:51;;;;;;;;;22.33;16.67;;;;;;;;4965036;28;45534;-78
2021/12/25 07:12:16;;;;;;;;;15.75;13.50;;;;;;;;4965381;28;46003;-78
2021/12/25 07:14:41;;;;;;;;;27.00;19.00;;;;;;;;4966899;28;45648;-80
2021/12/25 07:17:06;;;;;;;;;19.67;19.67;;;;;;;;4966448;28;45489;-80
2021/12/25 07:19:32;;;;;;;;;21.00;15.67;;;;;;;;4957367;28;47821;-80
2021/12/25 07:21:57;;;;;;;;;21.00;18.67;;;;;;;;4966845;28;45577;-80
2021/12/25 07:24:22;;;;;;;;;21.33;19.67;;;;;;;;4958724;28;45439;-80
2021/12/25 07:26:47;;;;;;;;;25.00;15.67;;;;;;;;4965534;28;45615;-80
2021/12/25 07:29:13;;;;;;;;;21.33;17.00;;;;;;;;4968707;28;45541;-79
2021/12/25 07:31:38;;;;;;;;;25.00;20.25;;;;;;;;4962795;28;46917;-80
2021/12/25 07:34:03;;;;;;;;;20.67;16.67;;;;;;;;4968472;28;45609;-80
2021/12/25 07:36:29;;;;;;;;;21.00;18.25;;;;;;;;4969921;28;45525;-79
2021/12/25 07:38:56;;;;;;;;;20.25;18.00;;;;;;;;4965583;28;45502;-80
2021/12/25 07:41:21;;;;;;;;;22.00;19.25;;;;;;;;4965654;28;48319;-79
2021/12/25 07:43:46;;;;;;;;;21.00;20.00;;;;;;;;4965564;28;45442;-80
2021/12/25 07:46:12;;;;;;;;;19.33;16.00;;;;;;;;4963535;28;45555;-80
2021/12/25 07:48:37;;;;;;;;;20.50;19.25;;;;;;;;4964743;28;45527;-79
2021/12/25 07:51:05;;;;;;;;;31.00;23.33;;;;;;;;4957035;28;46604;-80
2021/12/25 07:53:31;;;;;;;;;25.50;20.00;;;;;;;;4991054;28;46106;-80
2021/12/25 07:55:56;;;;;;;;;28.25;18.50;;;;;;;;4965200;28;45347;-80
2021/12/25 07:58:24;;;;;;;;;28.50;19.25;;;;;;;;4954433;28;45545;-80
2021/12/25 08:00:50;;;;;;;;;19.75;16.50;;;;;;;;4958418;28;45604;-80
2021/12/25 08:03:18;;;;;;;;;24.50;21.00;;;;;;;;4952597;28;45533;-80
2021/12/25 08:05:44;;;;;;;;;21.00;19.00;;;;;;;;4975039;28;45873;-80
2021/12/25 08:08:11;;;;;;;;;18.25;16.50;;;;;;;;4965946;28;45659;-80
2021/12/25 08:10:36;;;;;;;;;19.25;15.75;;;;;;;;4963117;28;46198;-80
2021/12/25 08:13:02;;;;;;;;;22.75;20.75;;;;;;;;4964286;28;45459;-79
2021/12/25 08:15:28;;;;;;;;;27.00;16.67;;;;;;;;4963130;28;47298;-79
2021/12/25 08:17:54;;;;;;;;;29.00;20.25;;;;;;;;4965926;28;45604;-79
2021/12/25 08:20:19;;;;;;;;;22.50;20.25;;;;;;;;4951937;28;45555;-79
2021/12/25 08:22:45;;;;;;;;;20.75;18.00;;;;;;;;4971329;28;45474;-79
2021/12/25 08:25:11;;;;;;;;;21.00;17.00;;;;;;;;4967629;28;45536;-80
2021/12/25 08:27:36;;;;;;;;;26.50;20.75;;;;;;;;4967610;28;45620;-80
2021/12/25 08:30:03;;;;;;;;;21.00;18.00;;;;;;;;4966061;28;48098;-80
2021/12/25 08:32:29;;;;;;;;;20.25;19.00;;;;;;;;4962674;28;46169;-80
2021/12/25 08:34:54;;;;;;;;;24.67;20.00;;;;;;;;4970080;28;45503;-79
2021/12/25 08:37:22;;;;;;;;;22.00;19.33;;;;;;;;4965635;28;45486;-80
2021/12/25 08:39:48;;;;;;;;;22.00;17.75;;;;;;;;4964686;28;45453;-81
2021/12/25 08:42:13;;;;;;;;;18.00;17.00;;;;;;;;4994501;28;45548;-80
2021/12/25 08:47:20;;;;;;;;;20.25;18.00;;;;;;;;4967971;28;46182;-68
2021/12/25 08:49:45;;;;;;;;;22.75;18.50;;;;;;;;4968068;28;46229;-70
2021/12/25 08:52:11;;;;;;;;;18.33;16.67;;;;;;;;4960393;28;45448;-68
2021/12/25 08:54:37;;;;;;;;;21.25;19.00;;;;;;;;4958758;28;45768;-67
2021/12/25 08:57:03;;;;;;;;;23.75;20.25;;;;;;;;4972175;28;45379;-67
2021/12/25 08:59:29;;;;;;;;;23.00;19.75;;;;;;;;4972111;28;46503;-67
2021/12/25 09:01:54;;;;;;;;;27.50;24.50;;;;;;;;4968940;28;45567;-68
2021/12/25 09:04:19;;;;;;;;;17.00;17.00;;;;;;;;4970899;28;45565;-67
2021/12/25 09:06:45;;;;;;;;;20.67;19.67;;;;;;;;4970094;28;45546;-68
2021/12/25 09:09:10;;;;;;;;;22.33;19.33;;;;;;;;4965808;28;45947;-68
2021/12/25 09:11:37;;;;;;;;;22.75;18.50;;;;;;;;4970364;27;45630;-67
2021/12/25 09:14:02;;;;;;;;;21.25;18.00;;;;;;;;4972012;28;45599;-67
2021/12/25 09:16:27;;;;;;;;;21.00;20.00;;;;;;;;4967683;28;45599;-67
2021/12/25 09:18:53;;;;;;;;;25.33;22.67;;;;;;;;4962269;28;47122;-80
2021/12/25 09:21:18;;;;;;;;;24.00;18.67;;;;;;;;4966873;28;45593;-80
2021/12/25 09:23:44;;;;;;;;;21.50;17.25;;;;;;;;4968784;28;45569;-80
2021/12/25 09:26:09;;;;;;;;;25.25;18.00;;;;;;;;4991714;28;45588;-80
2021/12/25 09:28:34;;;;;;;;;22.33;18.33;;;;;;;;4971319;28;45516;-80
2021/12/25 09:30:59;;;;;;;;;27.25;22.00;;;;;;;;4967510;28;45912;-81
2021/12/25 09:33:25;;;;;;;;;23.67;21.00;;;;;;;;5009661;28;45936;-83
2021/12/25 09:35:50;;;;;;;;;17.33;17.33;;;;;;;;4969964;28;45369;-82
2021/12/25 09:38:15;;;;;;;;;17.67;15.33;;;;;;;;4951993;28;45655;-79
2021/12/25 09:40:40;;;;;;;;;16.50;15.50;;;;;;;;4958760;28;45478;-79
2021/12/25 09:43:06;;;;;;;;;20.00;18.00;;;;;;;;4975983;28;45386;-83
2021/12/25 09:45:31;;;;;;;;;19.33;16.33;;;;;;;;4975912;28;45528;-84
2021/12/25 09:47:56;;;;;;;;;22.33;20.33;;;;;;;;4972482;28;48416;-80
2021/12/25 09:50:24;;;;;;;;;22.00;18.00;;;;;;;;4968869;28;45733;-80
2021/12/25 09:52:49;;;;;;;;;16.50;15.50;;;;;;;;5006310;28;45821;-78
2021/12/25 09:55:15;;;;;;;;;19.00;17.67;;;;;;;;4962224;28;45446;-79
2021/12/25 09:57:40;;;;;;;;;18.50;14.50;;;;;;;;4969028;28;46049;-80
2021/12/25 10:00:08;;;;;;;;;24.33;17.00;;;;;;;;4964811;28;45390;-81
2021/12/25 10:02:40;;;;;;;;;19.25;18.00;;;;;;;;4967580;28;45989;-81
2021/12/25 10:05:05;;;;;;;;;17.75;15.75;;;;;;;;4971736;28;45367;-81
2021/12/25 10:07:31;;;;;;;;;22.75;17.50;;;;;;;;4963899;28;45951;-82
2021/12/25 10:09:58;;;;;;;;;25.00;16.33;;;;;;;;4967450;28;45710;-67
2021/12/25 10:12:47;;;;;;;;;21.00;16.75;;;;;;;;4966746;28;45519;-68
2021/12/25 10:15:14;;;;;;;;;22.50;19.00;;;;;;;;4962513;28;45616;-68
2021/12/25 10:17:44;;;;;;;;;21.50;18.00;;;;;;;;4956496;28;46124;-66
2021/12/25 10:20:12;;;;;;;;;23.00;20.25;;;;;;;;4967692;28;45380;-69
2021/12/25 10:22:52;;;;;;;;;25.75;22.00;;;;;;;;4959578;28;45634;-70
2021/12/25 10:25:17;;;;;;;;;18.50;17.25;;;;;;;;4962674;28;45478;-68
2021/12/25 10:27:49;;;;;;;;;21.75;19.75;;;;;;;;4973925;28;46953;-69
2021/12/25 10:30:14;;;;;;;;;22.50;18.75;;;;;;;;4965126;28;45970;-67
2021/12/25 10:32:40;;;;;;;;;21.50;19.25;;;;;;;;4969463;28;46001;-68
2021/12/25 10:35:12;;;;;;;;;25.00;20.00;;;;;;;;4967455;28;45591;-67
2021/12/25 10:37:39;;;;;;;;;25.25;20.00;;;;;;;;4965780;28;46221;-67
2021/12/25 10:40:16;;;;;;;;;22.00;20.50;;;;;;;;4958691;28;46183;-67
2021/12/25 10:42:44;;;;;;;;;30.50;21.50;;;;;;;;4959397;28;45611;-81
2021/12/25 10:45:14;;;;;;;;;27.50;21.75;;;;;;;;4962492;28;48553;-87
2021/12/25 10:47:39;;;;;;;;;22.00;20.25;;;;;;;;4955022;28;46113;-82
2021/12/25 10:50:10;;;;;;;;;19.00;17.00;;;;;;;;4954423;28;45740;-82
2021/12/25 10:52:41;;;;;;;;;19.75;16.00;;;;;;;;4963625;28;45355;-81
2021/12/25 10:55:09;;;;;;;;;21.75;18.00;;;;;;;;4966292;28;45525;-81
2021/12/25 10:57:42;;;;;;;;;20.00;18.75;;;;;;;;4969596;28;45584;-82
2021/12/25 11:00:25;;;;;;;;;22.50;20.25;;;;;;;;5030750;27;45981;-81
2021/12/25 11:02:52;;;;;;;;;24.75;20.75;;;;;;;;4967369;28;45580;-82
2021/12/25 11:05:20;;;;;;;;;24.50;20.00;;;;;;;;4964427;28;45438;-82
2021/12/25 11:07:46;;;;;;;;;21.00;19.25;;;;;;;;4962958;28;47814;-82
2021/12/25 11:10:16;;;;;;;;;25.75;20.75;;;;;;;;4965306;28;45799;-82
2021/12/25 11:12:41;;;;;;;;;21.75;15.50;;;;;;;;4967548;28;45529;-82
2021/12/25 11:15:14;;;;;;;;;25.25;21.50;;;;;;;;4967580;28;45531;-82
2021/12/25 11:17:40;;;;;;;;;25.75;19.50;;;;;;;;4966084;28;45535;-81
2021/12/25 11:20:08;;;;;;;;;25.25;17.75;;;;;;;;4956998;28;47256;-82
2021/12/25 11:22:53;;;;;;;;;19.50;19.25;;;;;;;;4954779;28;45713;-81
2021/12/25 11:25:21;;;;;;;;;23.50;21.25;;;;;;;;4962600;28;45518;-82
2021/12/25 11:27:47;;;;;;;;;21.50;19.50;;;;;;;;4962687;28;45375;-82
2021/12/25 11:30:13;;;;;;;;;22.25;18.75;;;;;;;;4952418;28;45800;-80
2021/12/25 11:32:39;;;;;;;;;25.75;23.25;;;;;;;;4965817;28;45496;-79
2021/12/25 11:35:05;;;;;;;;;24.00;21.00;;;;;;;;4955732;28;45580;-80
2021/12/25 11:37:30;;;;;;;;;27.00;20.00;;;;;;;;4966657;28;46307;-80
2021/12/25 11:39:56;;;;;;;;;27.75;19.75;;;;;;;;4967439;28;45497;-79
2021/12/25 11:42:23;;;;;;;;;23.75;19.00;;;;;;;;5012999;28;45587;-80
2021/12/25 11:44:52;;;;;;;;;24.00;20.00;;;;;;;;4967395;28;45426;-80
2021/12/25 11:47:37;;;;;;;;;21.75;19.75;;;;;;;;4966641;28;47125;-79
2021/12/25 11:50:10;;;;;;;;;22.00;18.25;;;;;;;;4984717;28;46003;-80
2021/12/25 11:52:45;;;;;;;;;26.75;18.50;;;;;;;;4966254;28;45416;-80
2021/12/25 12:00:37;;;;;;;;;17.33;15.33;;;;;;;;4967991;28;45627;-80
2021/12/25 12:03:02;;;;;;;;;17.25;14.75;;;;;;;;4970076;28;45384;-79
2021/12/25 12:05:29;;;;;;;;;19.25;15.50;;;;;;;;4969294;28;45916;-78
2021/12/25 12:07:57;;;;;;;;;14.75;14.50;;;;;;;;4974994;28;47342;-81
2021/12/25 12:10:41;;;;;;;;;19.00;16.75;;;;;;;;4968062;28;45615;-81
2021/12/25 12:13:18;;;;;;;;;27.50;19.25;;;;;;;;4968146;28;45340;-81
2021/12/25 12:15:45;;;;;;;;;23.75;19.00;;;;;;;;4961162;28;45799;-80
2021/12/25 12:18:26;;;;;;;;;22.00;20.50;;;;;;;;4955784;28;46061;-81
2021/12/25 12:20:52;;;;;;;;;25.25;21.75;;;;;;;;4968500;28;45533;-81
2021/12/25 12:24:23;;;;;;;;;25.00;21.25;;;;;;;;4966913;28;45547;-81
2021/12/25 12:26:37;;;;;;;;;25.00;20.00;;;;;;;;4977169;28;45429;-80
2021/12/25 12:29:02;;;;;;;;;21.75;20.00;;;;;;;;4958099;28;46660;-81
2021/12/25 12:31:38;;;;;;;;;23.00;19.33;;;;;;;;4958412;28;45597;-80
2021/12/25 12:34:24;;;;;;;;;23.25;21.25;;;;;;;;4972175;28;45439;-80
2021/12/25 12:36:49;;;;;;;;;21.00;19.00;;;;;;;;5002209;28;45585;-81
2021/12/25 12:39:18;;;;;;;;;7.33;2.00;;;;;;;;4957638;28;46472;-84
2021/12/25 12:41:50;;;;;;;;;24.75;23.25;;;;;;;;4956457;28;46598;-82
2021/12/25 12:44:24;;;;;;;;;24.00;24.00;;;;;;;;4971777;28;45551;-82
2021/12/25 12:46:53;;;;;;;;;23.25;22.25;;;;;;;;4970953;28;45758;-83
2021/12/25 12:49:19;;;;;;;;;21.50;19.75;;;;;;;;4968464;28;45505;-87
2021/12/25 12:51:45;;;;;;;;;26.00;23.00;;;;;;;;4972254;28;45610;-81
2021/12/25 12:54:10;;;;;;;;;22.25;18.00;;;;;;;;4987940;28;45537;-81
2021/12/25 12:56:55;;;;;;;;;21.67;18.67;;;;;;;;4970635;28;45697;-80
2021/12/25 12:59:21;;;;;;;;;20.75;17.75;;;;;;;;4965330;28;48432;-79
2021/12/25 13:01:46;;;;;;;;;23.67;21.00;;;;;;;;4959948;28;45448;-81
2021/12/25 13:04:12;;;;;;;;;27.33;21.33;;;;;;;;4962861;28;45498;-88
2021/12/25 13:06:37;;;;;;;;;21.75;17.00;;;;;;;;4959235;28;45537;-85
2021/12/25 13:09:07;;;;;;;;;22.67;19.00;;;;;;;;4963354;28;46100;-87
2021/12/25 13:11:42;;;;;;;;;24.25;20.25;;;;;;;;4964519;28;45485;-84
2021/12/25 13:14:09;;;;;;;;;26.75;21.00;;;;;;;;4968351;28;45888;-84
2021/12/25 13:16:37;;;;;;;;;23.50;19.75;;;;;;;;4961046;28;45649;-85
2021/12/25 13:19:03;;;;;;;;;27.75;24.00;;;;;;;;5016955;27;46149;-83
2021/12/25 13:21:29;;;;;;;;;27.00;26.00;;;;;;;;4976062;28;45647;-81
2021/12/25 13:23:57;;;;;;;;;28.75;24.00;;;;;;;;4963603;28;45503;-82
2021/12/25 13:26:33;;;;;;;;;25.75;23.75;;;;;;;;4972616;28;45456;-81
2021/12/25 13:28:59;;;;;;;;;26.25;20.75;;;;;;;;4985700;27;46319;-81
2021/12/25 13:31:26;;;;;;;;;25.50;25.00;;;;;;;;4963026;28;46084;-81
2021/12/25 13:33:51;;;;;;;;;25.50;21.25;;;;;;;;4963426;28;45620;-82
2021/12/25 13:36:20;;;;;;;;;25.67;23.33;;;;;;;;4970205;28;45739;-81
2021/12/25 13:38:47;;;;;;;;;28.50;21.75;;;;;;;;4966432;28;46471;-80
2021/12/25 13:41:13;;;;;;;;;24.75;20.50;;;;;;;;4960207;28;45492;-80
2021/12/25 13:43:39;;;;;;;;;28.25;23.25;;;;;;;;4968982;28;45534;-81
2021/12/25 13:46:04;;;;;;;;;24.67;20.67;;;;;;;;4965570;28;45484;-81
2021/12/25 13:48:36;;;;;;;;;24.33;19.00;;;;;;;;4958426;28;45650;-81
2021/12/25 13:51:02;;;;;;;;;21.00;19.50;;;;;;;;4965239;28;46062;-82
2021/12/25 13:53:29;;;;;;;;;18.00;18.00;;;;;;;;4964550;28;45662;-80
2021/12/25 13:55:54;;;;;;;;;28.50;22.25;;;;;;;;4956727;28;45580;-81
2021/12/25 13:58:19;;;;;;;;;21.67;19.33;;;;;;;;4961810;28;45745;-82
2021/12/25 14:00:48;;;;;;;;;28.00;24.00;;;;;;;;4960678;28;45708;-81
2021/12/25 14:03:15;;;;;;;;;22.50;20.25;;;;;;;;4963262;28;45493;-81
2021/12/25 14:05:42;;;;;;;;;30.50;21.25;;;;;;;;4966930;28;45852;-81
2021/12/25 14:08:07;;;;;;;;;25.75;20.25;;;;;;;;4986434;28;45530;-82
2021/12/25 14:10:34;;;;;;;;;29.75;25.25;;;;;;;;4958944;28;45550;-81
2021/12/25 14:13:01;;;;;;;;;32.25;22.50;;;;;;;;4962017;28;45433;-81
2021/12/25 14:15:30;;;;;;;;;24.50;20.75;;;;;;;;4972495;28;45475;-81
2021/12/25 14:17:56;;;;;;;;;22.00;20.25;;;;;;;;4969550;28;48168;-82
2021/12/25 14:20:21;;;;;;;;;26.50;22.25;;;;;;;;4973260;28;46484;-81
2021/12/25 14:22:49;;;;;;;;;23.00;20.00;;;;;;;;4964786;28;45536;-79
2021/12/25 14:25:23;;;;;;;;;26.50;23.00;;;;;;;;4967161;28;45615;-81
2021/12/25 14:28:03;;;;;;;;;28.50;22.25;;;;;;;;4963128;28;45681;-83
2021/12/25 14:30:29;;;;;;;;;22.50;19.50;;;;;;;;4965352;28;46076;-82
2021/12/25 14:32:54;;;;;;;;;25.00;22.50;;;;;;;;4961165;28;45623;-82
2021/12/25 14:35:21;;;;;;;;;21.50;19.00;;;;;;;;4976678;28;45437;-77
2021/12/25 14:37:47;;;;;;;;;20.75;20.00;;;;;;;;4969092;28;46264;-80
2021/12/25 14:40:12;;;;;;;;;22.75;21.75;;;;;;;;4956157;27;45906;-80
2021/12/25 14:42:42;;;;;;;;;26.00;22.00;;;;;;;;4956408;28;45583;-80
2021/12/25 14:45:08;;;;;;;;;24.00;19.00;;;;;;;;4967707;28;45497;-80
2021/12/25 14:47:44;;;;;;;;;23.50;21.50;;;;;;;;4953305;28;45634;-80
2021/12/25 14:50:14;;;;;;;;;25.00;21.75;;;;;;;;4967620;28;45800;-80
2021/12/25 14:52:39;;;;;;;;;38.00;30.75;;;;;;;;4956746;28;45714;-80
2021/12/25 14:55:14;;;;;;;;;28.00;25.00;;;;;;;;4959815;28;45422;-80
2021/12/25 14:57:40;;;;;;;;;30.50;25.25;;;;;;;;4964690;28;46329;-80
2021/12/25 15:00:05;;;;;;;;;23.67;22.00;;;;;;;;4966904;28;45553;-81
2021/12/25 15:02:31;;;;;;;;;28.00;24.00;;;;;;;;4962364;28;45422;-80
2021/12/25 15:04:58;;;;;;;;;23.75;21.50;;;;;;;;4973217;28;45631;-80
2021/12/25 15:07:24;;;;;;;;;24.00;20.00;;;;;;;;4966712;28;45608;-80
2021/12/25 15:09:54;;;;;;;;;21.25;17.75;;;;;;;;4965074;27;45545;-81
2021/12/25 15:12:23;;;;;;;;;23.75;19.00;;;;;;;;4964743;28;45387;-80
2021/12/25 15:14:49;;;;;;;;;23.25;21.50;;;;;;;;4978171;28;45400;-80
2021/12/25 15:17:17;;;;;;;;;27.50;24.00;;;;;;;;4967289;28;45723;-80
2021/12/25 15:19:44;;;;;;;;;28.25;22.50;;;;;;;;4982513;28;45501;-80
2021/12/25 15:22:16;;;;;;;;;26.75;24.75;;;;;;;;4968736;28;45415;-81
2021/12/25 15:24:49;;;;;;;;;23.00;20.00;;;;;;;;4964427;28;45390;-81
2021/12/25 15:27:22;;;;;;;;;20.50;20.00;;;;;;;;4960911;28;45630;-81
2021/12/25 15:29:50;;;;;;;;;20.25;17.50;;;;;;;;4953443;28;45883;-81
2021/12/25 15:32:16;;;;;;;;;21.75;17.75;;;;;;;;4966580;28;45478;-81
2021/12/25 15:34:51;;;;;;;;;24.00;16.75;;;;;;;;4971643;28;45551;-81
2021/12/25 15:37:19;;;;;;;;;25.25;19.75;;;;;;;;4967241;28;48257;-81
2021/12/25 15:39:44;;;;;;;;;23.00;19.00;;;;;;;;4953487;28;45984;-80
2021/12/25 15:42:09;;;;;;;;;20.67;17.00;;;;;;;;4960646;28;45623;-81
2021/12/25 15:44:34;;;;;;;;;22.00;18.00;;;;;;;;4980896;28;45480;-80